Time;durP1;ratioP1;P1;durP2;ratioP2;P2;SDS_P1;SDS_P2;PMS_P1;PMS_P2;Temp;Humidity;BMP_temperature;BMP_pressure;BME280_temperature;BME280_humidity;BME280_pressure;Samples;Min_cycle;Max_cycle;Signal;HPM_P1;HPM_P2
2021/06/13 00:02:17;;;;;;;3.67;2.25;;;;;;;;;;5131525;28;20180;-65
2021/06/13 00:04:43;;;;;;;4.85;1.90;;;;;;;;;;5131122;28;20030;-65
2021/06/13 00:07:09;;;;;;;5.25;1.70;;;;;;;;;;5112758;28;20030;-65
2021/06/13 00:09:36;;;;;;;3.95;1.80;;;;;;;;;;5112916;28;20102;-65
2021/06/13 00:12:02;;;;;;;4.00;1.90;;;;;;;;;;5131338;28;20417;-65
2021/06/13 00:14:28;;;;;;;6.35;2.20;;;;;;;;;;5131455;28;20023;-65
2021/06/13 00:16:54;;;;;;;3.72;1.63;;;;;;;;;;5131321;28;20031;-64
2021/06/13 00:19:21;;;;;;;5.05;1.98;;;;;;;;;;5131308;28;20015;-63
2021/06/13 00:21:47;;;;;;;5.22;1.98;;;;;;;;;;5133847;27;20019;-64
2021/06/13 00:24:13;;;;;;;3.83;1.88;;;;;;;;;;5151737;27;20023;-64
2021/06/13 00:26:39;;;;;;;5.10;2.05;;;;;;;;;;5151713;27;20022;-64
2021/06/13 00:29:06;;;;;;;3.95;1.88;;;;;;;;;;5151706;27;20030;-64
2021/06/13 00:31:32;;;;;;;3.47;1.80;;;;;;;;;;5152680;27;20114;-64
2021/06/13 00:33:58;;;;;;;3.55;1.77;;;;;;;;;;5137829;27;20027;-65
2021/06/13 00:36:24;;;;;;;6.43;2.20;;;;;;;;;;5156553;27;20385;-64
2021/06/13 00:38:50;;;;;;;4.32;1.90;;;;;;;;;;5155949;27;20026;-65
2021/06/13 00:41:20;;;;;;;5.03;2.17;;;;;;;;;;5155735;27;20026;-64
2021/06/13 00:43:46;;;;;;;3.53;1.77;;;;;;;;;;5155571;27;20140;-65
2021/06/13 00:46:12;;;;;;;5.28;2.17;;;;;;;;;;5155525;27;20019;-64
2021/06/13 00:48:38;;;;;;;4.63;2.00;;;;;;;;;;5155622;27;20027;-65
2021/06/13 00:51:05;;;;;;;5.40;2.00;;;;;;;;;;5137046;27;20042;-64
2021/06/13 00:53:31;;;;;;;5.75;2.08;;;;;;;;;;5155336;27;20055;-64
2021/06/13 00:55:58;;;;;;;3.40;1.85;;;;;;;;;;5155352;27;20097;-63
2021/06/13 00:58:24;;;;;;;3.95;2.05;;;;;;;;;;5155557;27;20079;-64
2021/06/13 01:00:50;;;;;;;5.43;1.90;;;;;;;;;;5155709;27;20127;-64
2021/06/13 01:03:16;;;;;;;4.97;2.17;;;;;;;;;;5155610;27;20077;-64
2021/06/13 01:05:42;;;;;;;4.50;2.03;;;;;;;;;;5155485;27;20018;-64
2021/06/13 01:08:27;;;;;;;4.20;2.15;;;;;;;;;;5155314;27;20019;-65
2021/06/13 01:11:12;;;;;;;3.38;1.85;;;;;;;;;;5156066;27;20034;-64
2021/06/13 01:13:49;;;;;;;5.82;2.30;;;;;;;;;;5156093;27;20023;-64
2021/06/13 01:16:23;;;;;;;3.97;1.92;;;;;;;;;;5155978;27;20022;-64
2021/06/13 01:18:56;;;;;;;4.05;2.00;;;;;;;;;;5155901;27;20507;-64
2021/06/13 01:21:24;;;;;;;4.47;2.10;;;;;;;;;;5155816;27;20033;-64
2021/06/13 01:23:51;;;;;;;5.35;2.10;;;;;;;;;;5155728;27;20030;-64
2021/06/13 01:26:22;;;;;;;5.30;2.33;;;;;;;;;;5155665;27;20029;-64
2021/06/13 01:29:18;;;;;;;3.97;1.75;;;;;;;;;;5155640;27;20479;-64
2021/06/13 01:31:46;;;;;;;2.92;1.70;;;;;;;;;;5141769;27;20049;-64
2021/06/13 01:34:14;;;;;;;4.57;2.00;;;;;;;;;;5155511;27;20031;-64
2021/06/13 01:36:40;;;;;;;3.83;2.00;;;;;;;;;;5155413;27;20071;-65
2021/06/13 01:39:09;;;;;;;3.45;2.08;;;;;;;;;;5155413;27;20518;-64
2021/06/13 01:41:37;;;;;;;5.20;1.70;;;;;;;;;;5155312;27;20019;-65
2021/06/13 01:44:04;;;;;;;4.57;2.05;;;;;;;;;;5154898;27;20023;-64
2021/06/13 01:46:31;;;;;;;3.88;1.75;;;;;;;;;;5155101;27;20054;-64
2021/06/13 01:48:58;;;;;;;3.60;1.85;;;;;;;;;;5155272;27;20025;-64
2021/06/13 01:51:25;;;;;;;6.13;2.05;;;;;;;;;;5153989;27;20038;-65
2021/06/13 01:53:51;;;;;;;3.72;2.10;;;;;;;;;;5155010;27;20034;-65
2021/06/13 01:56:18;;;;;;;3.70;1.80;;;;;;;;;;5155185;27;20022;-65
2021/06/13 01:58:48;;;;;;;3.83;1.73;;;;;;;;;;5155144;27;20462;-65
2021/06/13 02:01:16;;;;;;;3.38;1.90;;;;;;;;;;5155046;27;20022;-64
2021/06/13 02:03:43;;;;;;;3.55;1.83;;;;;;;;;;5136395;27;20252;-65
2021/06/13 02:06:09;;;;;;;4.25;1.80;;;;;;;;;;5154918;27;20379;-64
2021/06/13 02:08:36;;;;;;;3.22;1.70;;;;;;;;;;5154889;27;20015;-64
2021/06/13 02:11:04;;;;;;;3.63;1.88;;;;;;;;;;5154686;27;20231;-64
2021/06/13 02:13:32;;;;;;;3.75;1.60;;;;;;;;;;5154780;27;20015;-65
2021/06/13 02:15:59;;;;;;;4.45;1.67;;;;;;;;;;5154842;27;20031;-64
2021/06/13 02:18:27;;;;;;;3.80;1.73;;;;;;;;;;5154799;27;20537;-64
2021/06/13 02:20:53;;;;;;;3.65;1.42;;;;;;;;;;5154668;27;20385;-64
2021/06/13 02:23:19;;;;;;;5.82;1.70;;;;;;;;;;5154569;27;20616;-65
2021/06/13 02:25:45;;;;;;;3.35;1.58;;;;;;;;;;5154611;27;20366;-65
2021/06/13 02:28:12;;;;;;;3.50;1.52;;;;;;;;;;5154535;27;20118;-65
2021/06/13 02:30:39;;;;;;;4.35;1.73;;;;;;;;;;5154366;27;20023;-65
2021/06/13 02:33:08;;;;;;;5.05;1.73;;;;;;;;;;5154195;27;20143;-65
2021/06/13 02:35:34;;;;;;;4.15;1.73;;;;;;;;;;5154190;27;20080;-64
2021/06/13 02:38:01;;;;;;;4.47;1.63;;;;;;;;;;5154178;27;20377;-65
2021/06/13 02:40:30;;;;;;;3.28;1.58;;;;;;;;;;5154353;27;20495;-64
2021/06/13 02:42:56;;;;;;;3.97;1.65;;;;;;;;;;5154130;27;20091;-64
2021/06/13 02:45:22;;;;;;;5.75;1.70;;;;;;;;;;5154215;27;20079;-64
2021/06/13 02:47:48;;;;;;;3.80;1.75;;;;;;;;;;5154011;27;20042;-65
2021/06/13 02:50:15;;;;;;;4.57;1.70;;;;;;;;;;5153990;27;20019;-65
2021/06/13 02:52:44;;;;;;;4.95;1.38;;;;;;;;;;5154019;27;20480;-65
2021/06/13 02:55:12;;;;;;;4.85;1.67;;;;;;;;;;5153351;27;20046;-65
2021/06/13 02:57:41;;;;;;;4.35;1.63;;;;;;;;;;5153893;27;20082;-65
2021/06/13 03:00:10;;;;;;;6.18;1.48;;;;;;;;;;5153205;27;20030;-64
2021/06/13 03:02:39;;;;;;;4.28;1.67;;;;;;;;;;5152917;27;20026;-65
2021/06/13 03:05:06;;;;;;;3.72;1.58;;;;;;;;;;5134383;27;20076;-65
2021/06/13 03:07:32;;;;;;;8.55;1.70;;;;;;;;;;5153028;27;20027;-65
2021/06/13 03:09:59;;;;;;;3.20;1.48;;;;;;;;;;5134365;27;20114;-65
2021/06/13 03:12:25;;;;;;;3.33;1.52;;;;;;;;;;5153012;27;20041;-65
2021/06/13 03:14:52;;;;;;;3.00;1.42;;;;;;;;;;5152897;27;20023;-66
2021/06/13 03:17:19;;;;;;;3.42;1.40;;;;;;;;;;5152814;27;20105;-65
2021/06/13 03:19:47;;;;;;;4.18;1.45;;;;;;;;;;5152761;27;20010;-66
2021/06/13 03:22:14;;;;;;;3.80;1.50;;;;;;;;;;5152871;27;20026;-64
2021/06/13 03:24:41;;;;;;;4.30;1.60;;;;;;;;;;5152936;27;20095;-65
2021/06/13 03:27:08;;;;;;;4.18;1.65;;;;;;;;;;5134255;27;20022;-65
2021/06/13 03:29:36;;;;;;;3.72;1.40;;;;;;;;;;5152796;27;20617;-66
2021/06/13 03:32:03;;;;;;;3.85;2.03;;;;;;;;;;5153247;27;20093;-65
2021/06/13 03:34:30;;;;;;;3.25;1.50;;;;;;;;;;5134891;27;20115;-65
2021/06/13 03:36:57;;;;;;;3.97;1.55;;;;;;;;;;5153698;27;20031;-65
2021/06/13 03:39:23;;;;;;;5.78;1.50;;;;;;;;;;5153459;27;20180;-64
2021/06/13 03:41:51;;;;;;;3.38;1.50;;;;;;;;;;5153244;27;20074;-65
2021/06/13 03:44:17;;;;;;;3.65;1.58;;;;;;;;;;5153254;27;20489;-64
2021/06/13 03:46:43;;;;;;;2.95;1.40;;;;;;;;;;5134710;27;20034;-64
2021/06/13 03:49:10;;;;;;;4.53;1.42;;;;;;;;;;5153151;27;20032;-65
2021/06/13 03:51:36;;;;;;;2.88;1.45;;;;;;;;;;5151725;27;20046;-64
2021/06/13 03:54:03;;;;;;;5.50;1.90;;;;;;;;;;5152047;27;20057;-65
2021/06/13 03:56:36;;;;;;;4.68;1.58;;;;;;;;;;5152132;27;20435;-64
2021/06/13 03:59:04;;;;;;;4.13;1.40;;;;;;;;;;5152305;27;20022;-64
2021/06/13 04:01:30;;;;;;;4.00;1.88;;;;;;;;;;5152505;27;20027;-65
2021/06/13 04:03:56;;;;;;;3.10;1.40;;;;;;;;;;5152484;27;20098;-65
2021/06/13 04:06:26;;;;;;;6.68;1.85;;;;;;;;;;5154800;27;20078;-65
2021/06/13 04:08:53;;;;;;;3.63;1.83;;;;;;;;;;5138061;27;20046;-64
2021/06/13 04:11:20;;;;;;;6.55;1.65;;;;;;;;;;5156407;27;20027;-65
2021/06/13 04:13:47;;;;;;;7.70;1.95;;;;;;;;;;5156371;27;20019;-65
2021/06/13 04:16:14;;;;;;;6.43;1.67;;;;;;;;;;5156404;27;20065;-65
2021/06/13 04:18:41;;;;;;;4.95;1.65;;;;;;;;;;5156151;27;20110;-64
2021/06/13 04:21:09;;;;;;;5.95;1.92;;;;;;;;;;5156358;27;20023;-64
2021/06/13 04:23:36;;;;;;;4.00;1.73;;;;;;;;;;5157013;27;20092;-65
2021/06/13 04:26:02;;;;;;;5.03;1.65;;;;;;;;;;5156945;27;20023;-65
2021/06/13 04:28:29;;;;;;;4.32;1.70;;;;;;;;;;5156886;27;20044;-64
2021/06/13 04:31:05;;;;;;;4.95;1.38;;;;;;;;;;5155556;27;20022;-64
2021/06/13 04:33:31;;;;;;;3.38;1.50;;;;;;;;;;5156749;27;20073;-64
2021/06/13 04:35:58;;;;;;;5.75;1.50;;;;;;;;;;5156703;27;20091;-65
2021/06/13 04:38:24;;;;;;;4.00;1.55;;;;;;;;;;5137938;27;20046;-65
2021/06/13 04:40:50;;;;;;;4.32;1.50;;;;;;;;;;5156478;27;20097;-65
2021/06/13 04:43:16;;;;;;;4.80;2.03;;;;;;;;;;5156188;27;20047;-64
2021/06/13 04:45:43;;;;;;;3.72;1.33;;;;;;;;;;5156521;27;20106;-65
2021/06/13 04:48:09;;;;;;;5.75;1.70;;;;;;;;;;5156460;27;20102;-64
2021/06/13 04:50:35;;;;;;;4.78;1.55;;;;;;;;;;5120578;27;20054;-65
2021/06/13 04:53:02;;;;;;;4.18;1.83;;;;;;;;;;5137591;27;20027;-64
2021/06/13 04:55:38;;;;;;;3.17;1.55;;;;;;;;;;5137591;27;20031;-65
2021/06/13 04:58:28;;;;;;;5.22;1.63;;;;;;;;;;5137913;27;20234;-65
2021/06/13 05:00:54;;;;;;;10.05;1.70;;;;;;;;;;5147728;27;20042;-65
2021/06/13 05:03:20;;;;;;;4.47;1.50;;;;;;;;;;5155996;27;20022;-64
2021/06/13 05:05:46;;;;;;;3.03;1.50;;;;;;;;;;5156163;27;20015;-65
2021/06/13 05:08:12;;;;;;;6.55;1.50;;;;;;;;;;5156113;27;20401;-65
2021/06/13 05:10:39;;;;;;;4.22;1.50;;;;;;;;;;5155710;27;20027;-65
2021/06/13 05:13:17;;;;;;;8.50;1.95;;;;;;;;;;5155849;27;20019;-65
2021/06/13 05:15:44;;;;;;;3.42;1.38;;;;;;;;;;5155898;27;20015;-65
2021/06/13 05:18:10;;;;;;;4.57;1.70;;;;;;;;;;5155123;27;20023;-64
2021/06/13 05:20:37;;;;;;;4.72;1.67;;;;;;;;;;5155662;27;20417;-64
2021/06/13 05:23:04;;;;;;;3.83;1.50;;;;;;;;;;5155736;27;20019;-64
2021/06/13 05:25:33;;;;;;;5.07;1.50;;;;;;;;;;5155674;27;20487;-65
2021/06/13 05:27:59;;;;;;;3.83;1.45;;;;;;;;;;5155753;27;20064;-65
2021/06/13 05:30:26;;;;;;;5.88;1.80;;;;;;;;;;5155786;27;20031;-64
2021/06/13 05:32:52;;;;;;;3.58;1.50;;;;;;;;;;5155553;27;20057;-65
2021/06/13 05:35:19;;;;;;;4.20;1.83;;;;;;;;;;5155453;27;20034;-65
2021/06/13 05:37:45;;;;;;;4.53;1.55;;;;;;;;;;5155466;27;20034;-64
2021/06/13 05:40:12;;;;;;;5.90;1.67;;;;;;;;;;5155403;27;20058;-65
2021/06/13 05:42:38;;;;;;;3.63;1.40;;;;;;;;;;5155358;27;20042;-64
2021/06/13 05:45:05;;;;;;;6.07;1.70;;;;;;;;;;5136882;27;20378;-64
2021/06/13 05:47:31;;;;;;;5.90;1.83;;;;;;;;;;5155422;27;20517;-65
2021/06/13 05:49:57;;;;;;;2.30;1.30;;;;;;;;;;5155289;27;20030;-65
2021/06/13 05:52:23;;;;;;;4.13;1.63;;;;;;;;;;5155135;27;20022;-65
2021/06/13 05:54:51;;;;;;;3.63;1.40;;;;;;;;;;5155225;27;20011;-64
2021/06/13 05:57:17;;;;;;;4.65;1.50;;;;;;;;;;5155046;27;20492;-65
2021/06/13 05:59:43;;;;;;;4.07;1.40;;;;;;;;;;5136398;27;20027;-64
2021/06/13 06:02:09;;;;;;;5.57;2.00;;;;;;;;;;5136339;27;20023;-64
2021/06/13 06:04:35;;;;;;;3.45;1.60;;;;;;;;;;5154748;27;20023;-64
2021/06/13 06:07:01;;;;;;;3.58;1.40;;;;;;;;;;5154712;27;20023;-65
2021/06/13 06:09:27;;;;;;;6.25;1.45;;;;;;;;;;5154845;27;20026;-65
2021/06/13 06:11:53;;;;;;;4.07;1.58;;;;;;;;;;5154732;27;20048;-65
2021/06/13 06:14:19;;;;;;;4.38;1.50;;;;;;;;;;5154820;27;20010;-64
2021/06/13 06:16:46;;;;;;;3.92;1.50;;;;;;;;;;5154695;27;20101;-65
2021/06/13 06:19:12;;;;;;;4.55;1.75;;;;;;;;;;5154715;27;20015;-65
2021/06/13 06:21:38;;;;;;;4.28;1.65;;;;;;;;;;5154510;27;20014;-64
2021/06/13 06:24:05;;;;;;;2.95;1.30;;;;;;;;;;5154471;27;20361;-65
2021/06/13 06:26:31;;;;;;;3.72;1.42;;;;;;;;;;5154414;27;20019;-65
2021/06/13 06:28:57;;;;;;;6.18;1.55;;;;;;;;;;5153401;27;20027;-64
2021/06/13 06:31:23;;;;;;;5.05;1.30;;;;;;;;;;5152738;27;20081;-65
2021/06/13 06:33:49;;;;;;;5.57;1.73;;;;;;;;;;5154297;27;20019;-65
2021/06/13 06:36:15;;;;;;;5.38;1.58;;;;;;;;;;5154311;27;20101;-64
2021/06/13 06:38:41;;;;;;;6.60;1.60;;;;;;;;;;5154347;27;20025;-64
2021/06/13 06:41:07;;;;;;;5.40;1.13;;;;;;;;;;5153786;27;20060;-65
2021/06/13 06:43:33;;;;;;;4.15;1.42;;;;;;;;;;5153796;27;20043;-65
2021/06/13 06:45:59;;;;;;;6.00;1.95;;;;;;;;;;5154127;27;20023;-66
2021/06/13 06:48:25;;;;;;;7.43;1.60;;;;;;;;;;5154081;27;20029;-64
2021/06/13 06:50:51;;;;;;;5.93;1.60;;;;;;;;;;5153634;27;20038;-65
2021/06/13 06:53:17;;;;;;;8.25;1.55;;;;;;;;;;5154013;27;20043;-64
2021/06/13 06:55:43;;;;;;;5.38;1.20;;;;;;;;;;5154069;27;20023;-65
2021/06/13 06:58:09;;;;;;;6.57;1.45;;;;;;;;;;5153891;27;20029;-65
2021/06/13 07:00:36;;;;;;;9.40;1.70;;;;;;;;;;5135207;27;20517;-65
2021/06/13 07:03:02;;;;;;;5.25;1.50;;;;;;;;;;5152202;27;20015;-66
2021/06/13 07:05:28;;;;;;;2.88;1.10;;;;;;;;;;5132926;27;20068;-66
2021/06/13 07:07:54;;;;;;;3.97;1.20;;;;;;;;;;5132992;27;20026;-65
2021/06/13 07:10:20;;;;;;;3.75;1.40;;;;;;;;;;5132623;27;20063;-64
2021/06/13 07:12:46;;;;;;;7.40;1.42;;;;;;;;;;5142338;27;20516;-66
2021/06/13 07:15:12;;;;;;;4.20;1.42;;;;;;;;;;5153605;27;20026;-66
2021/06/13 07:17:38;;;;;;;4.82;1.40;;;;;;;;;;5153518;27;20373;-65
2021/06/13 07:20:06;;;;;;;5.97;1.75;;;;;;;;;;5153397;27;20019;-66
2021/06/13 07:22:32;;;;;;;5.88;1.30;;;;;;;;;;5153523;27;20026;-66
2021/06/13 07:25:00;;;;;;;4.57;1.42;;;;;;;;;;5153558;27;20006;-65
2021/06/13 07:27:27;;;;;;;9.30;1.80;;;;;;;;;;5153503;27;20094;-65
2021/06/13 07:29:53;;;;;;;4.45;1.45;;;;;;;;;;5149836;27;20084;-66
2021/06/13 07:32:19;;;;;;;9.93;2.17;;;;;;;;;;5150466;27;20090;-65
2021/06/13 07:34:45;;;;;;;10.50;2.25;;;;;;;;;;5153136;27;20022;-66
2021/06/13 07:37:12;;;;;;;7.10;1.80;;;;;;;;;;5152657;27;20015;-67
2021/06/13 07:39:38;;;;;;;4.55;1.63;;;;;;;;;;5153124;27;20473;-66
2021/06/13 07:42:05;;;;;;;21.50;2.22;;;;;;;;;;5134220;27;20410;-66
2021/06/13 07:44:32;;;;;;;10.75;1.65;;;;;;;;;;5151043;27;20022;-67
2021/06/13 07:46:59;;;;;;;7.10;1.70;;;;;;;;;;5150701;27;20061;-66
2021/06/13 07:49:25;;;;;;;7.10;1.50;;;;;;;;;;5151675;27;20155;-69
2021/06/13 07:51:51;;;;;;;23.35;2.30;;;;;;;;;;5153024;27;20038;-66
2021/06/13 07:54:17;;;;;;;6.70;2.28;;;;;;;;;;5153080;27;20072;-67
2021/06/13 07:56:43;;;;;;;7.28;1.52;;;;;;;;;;5134455;27;20045;-67
2021/06/13 07:59:09;;;;;;;8.02;1.48;;;;;;;;;;5153069;27;20018;-67
2021/06/13 08:01:35;;;;;;;4.43;1.38;;;;;;;;;;5134440;27;20022;-64
2021/06/13 08:04:01;;;;;;;8.02;1.95;;;;;;;;;;5153094;27;20469;-66
2021/06/13 08:06:27;;;;;;;3.72;1.30;;;;;;;;;;5153083;27;20026;-67
2021/06/13 08:08:53;;;;;;;4.43;1.23;;;;;;;;;;5152984;27;20054;-67
2021/06/13 08:11:19;;;;;;;7.50;1.88;;;;;;;;;;5152862;27;20027;-67
2021/06/13 08:13:45;;;;;;;2.78;1.27;;;;;;;;;;5152948;27;20030;-67
2021/06/13 08:16:11;;;;;;;4.68;1.73;;;;;;;;;;5153221;27;20547;-64
2021/06/13 08:18:37;;;;;;;4.10;1.45;;;;;;;;;;5153480;27;20015;-67
2021/06/13 08:21:04;;;;;;;5.50;1.20;;;;;;;;;;5153170;27;20079;-64
2021/06/13 08:23:31;;;;;;;3.75;1.40;;;;;;;;;;5152692;27;20465;-66
2021/06/13 08:25:58;;;;;;;4.70;1.40;;;;;;;;;;5153240;27;20034;-67
2021/06/13 08:28:24;;;;;;;4.43;1.40;;;;;;;;;;5152870;27;20015;-67
2021/06/13 08:30:50;;;;;;;7.20;1.38;;;;;;;;;;5152514;27;20115;-67
2021/06/13 08:33:17;;;;;;;2.95;1.13;;;;;;;;;;5152710;27;20025;-67
2021/06/13 08:35:43;;;;;;;7.75;1.48;;;;;;;;;;5152894;27;20504;-67
2021/06/13 08:38:09;;;;;;;5.35;1.00;;;;;;;;;;5134201;27;20019;-66
2021/06/13 08:40:35;;;;;;;5.85;1.30;;;;;;;;;;5152803;27;20068;-65
2021/06/13 08:43:01;;;;;;;5.63;1.27;;;;;;;;;;5152670;27;20201;-65
2021/06/13 08:45:29;;;;;;;3.70;1.13;;;;;;;;;;5152638;27;20123;-64
2021/06/13 08:47:55;;;;;;;4.00;1.20;;;;;;;;;;5152742;27;20026;-67
2021/06/13 08:50:22;;;;;;;5.35;1.08;;;;;;;;;;5152512;27;20546;-64
2021/06/13 08:52:52;;;;;;;4.00;1.02;;;;;;;;;;5153796;27;20064;-66
2021/06/13 08:55:22;;;;;;;4.07;1.30;;;;;;;;;;5156090;27;20568;-66
2021/06/13 08:57:49;;;;;;;3.75;1.02;;;;;;;;;;5156080;27;20050;-65
2021/06/13 09:00:17;;;;;;;5.40;1.15;;;;;;;;;;5137665;27;20048;-67
2021/06/13 09:02:44;;;;;;;5.38;1.15;;;;;;;;;;5156099;27;20022;-66
2021/06/13 09:05:10;;;;;;;3.85;1.23;;;;;;;;;;5137711;27;20052;-67
2021/06/13 09:07:46;;;;;;;3.13;1.20;;;;;;;;;;5156257;27;20053;-66
2021/06/13 09:10:12;;;;;;;3.85;1.10;;;;;;;;;;5155984;27;20027;-67
2021/06/13 09:12:38;;;;;;;16.77;1.27;;;;;;;;;;5155976;27;20027;-67
2021/06/13 09:15:05;;;;;;;2.90;0.90;;;;;;;;;;5156013;27;20050;-67
2021/06/13 09:17:31;;;;;;;5.07;0.93;;;;;;;;;;5155959;27;20505;-65
2021/06/13 09:20:20;;;;;;;2.88;0.90;;;;;;;;;;5155783;27;20030;-65
2021/06/13 09:23:06;;;;;;;3.15;1.00;;;;;;;;;;5155869;27;20061;-64
2021/06/13 09:25:33;;;;;;;3.08;1.00;;;;;;;;;;5155662;27;20039;-67
2021/06/13 09:28:28;;;;;;;3.78;1.00;;;;;;;;;;5155570;27;20097;-65
2021/06/13 09:30:55;;;;;;;6.85;1.30;;;;;;;;;;5134103;27;20039;-67
2021/06/13 09:33:23;;;;;;;5.70;1.00;;;;;;;;;;5155744;27;20027;-67
2021/06/13 09:35:50;;;;;;;4.13;1.10;;;;;;;;;;5155561;27;20015;-66
2021/06/13 09:38:16;;;;;;;4.53;0.90;;;;;;;;;;5155935;27;20105;-66
2021/06/13 09:40:51;;;;;;;2.03;0.77;;;;;;;;;;5155796;27;20027;-67
2021/06/13 09:43:22;;;;;;;3.28;0.98;;;;;;;;;;5155267;27;20039;-64
2021/06/13 09:45:50;;;;;;;2.53;0.90;;;;;;;;;;5154486;27;20023;-67
2021/06/13 09:48:16;;;;;;;4.95;1.02;;;;;;;;;;5153833;27;20026;-66
2021/06/13 09:50:48;;;;;;;4.88;1.02;;;;;;;;;;5153603;27;20589;-65
2021/06/13 09:53:22;;;;;;;4.32;1.30;;;;;;;;;;5154848;27;20011;-66
2021/06/13 09:55:59;;;;;;;4.93;1.13;;;;;;;;;;5155196;27;20023;-67
2021/06/13 09:58:25;;;;;;;3.60;1.00;;;;;;;;;;5155435;27;20022;-67
2021/06/13 10:00:51;;;;;;;2.72;1.00;;;;;;;;;;5151842;27;20034;-64
2021/06/13 10:03:21;;;;;;;3.45;1.20;;;;;;;;;;5152827;27;20015;-65
2021/06/13 10:05:55;;;;;;;3.05;0.93;;;;;;;;;;5154163;27;20031;-67
2021/06/13 10:08:21;;;;;;;2.22;0.95;;;;;;;;;;5154443;27;20090;-66
2021/06/13 10:10:47;;;;;;;4.15;1.13;;;;;;;;;;5154748;27;20035;-66
2021/06/13 10:13:13;;;;;;;2.67;0.90;;;;;;;;;;5154771;27;20034;-67
2021/06/13 10:15:40;;;;;;;4.18;1.00;;;;;;;;;;5136144;27;20019;-66
2021/06/13 10:18:12;;;;;;;3.30;1.00;;;;;;;;;;5154640;27;20010;-65
2021/06/13 10:20:38;;;;;;;3.67;1.08;;;;;;;;;;5154558;27;20101;-66
2021/06/13 10:23:05;;;;;;;2.92;0.95;;;;;;;;;;5135897;27;20031;-66
2021/06/13 10:25:31;;;;;;;3.58;1.15;;;;;;;;;;5153896;27;20019;-67
2021/06/13 10:27:58;;;;;;;5.32;1.00;;;;;;;;;;5153899;27;20063;-67
2021/06/13 10:30:25;;;;;;;4.03;1.25;;;;;;;;;;5154281;27;20027;-67
2021/06/13 10:32:52;;;;;;;2.58;0.88;;;;;;;;;;5135626;27;20023;-67
2021/06/13 10:35:18;;;;;;;5.57;1.48;;;;;;;;;;5154338;27;20023;-66
2021/06/13 10:37:45;;;;;;;4.22;1.23;;;;;;;;;;5154362;27;20023;-67
2021/06/13 10:40:12;;;;;;;3.28;1.08;;;;;;;;;;5154105;27;20035;-67
2021/06/13 10:42:38;;;;;;;4.60;1.10;;;;;;;;;;5153888;27;20122;-67
2021/06/13 10:45:05;;;;;;;2.78;0.80;;;;;;;;;;5154222;27;20015;-66
2021/06/13 10:47:32;;;;;;;3.78;0.95;;;;;;;;;;5154178;27;20022;-67
2021/06/13 10:50:04;;;;;;;4.25;1.05;;;;;;;;;;5154020;27;20022;-67
2021/06/13 10:52:31;;;;;;;5.10;1.15;;;;;;;;;;5153983;27;20025;-66
2021/06/13 10:54:58;;;;;;;3.42;1.00;;;;;;;;;;5154195;27;20101;-67
2021/06/13 10:57:24;;;;;;;3.80;1.10;;;;;;;;;;5135340;27;20018;-67
2021/06/13 10:59:52;;;;;;;3.20;1.30;;;;;;;;;;5135174;27;20401;-67
2021/06/13 11:02:25;;;;;;;3.22;1.10;;;;;;;;;;5153663;27;20021;-65
2021/06/13 11:04:51;;;;;;;2.97;1.00;;;;;;;;;;5153812;27;20026;-67
2021/06/13 11:07:29;;;;;;;3.88;0.82;;;;;;;;;;5153773;27;20015;-66
2021/06/13 11:10:14;;;;;;;4.10;1.30;;;;;;;;;;5153656;27;20019;-67
2021/06/13 11:12:49;;;;;;;2.70;1.00;;;;;;;;;;5153807;27;20026;-65
2021/06/13 11:15:18;;;;;;;5.20;1.50;;;;;;;;;;5153151;27;20023;-66
2021/06/13 11:17:56;;;;;;;3.83;1.05;;;;;;;;;;5153423;27;20603;-67
2021/06/13 11:23:28;;;;;;;2.95;1.00;;;;;;;;;;5153369;27;20019;-67
2021/06/13 11:25:57;;;;;;;8.90;0.90;;;;;;;;;;5142349;27;20027;-66
2021/06/13 11:28:24;;;;;;;5.03;1.17;;;;;;;;;;5153239;27;20488;-67
2021/06/13 11:31:13;;;;;;;2.70;1.08;;;;;;;;;;5153217;27;20023;-66
2021/06/13 11:33:47;;;;;;;4.28;1.25;;;;;;;;;;5125228;27;20412;-64
2021/06/13 11:36:22;;;;;;;2.75;1.02;;;;;;;;;;5153292;27;20105;-64
2021/06/13 11:38:49;;;;;;;3.72;1.20;;;;;;;;;;5153397;27;20023;-66
2021/06/13 11:41:27;;;;;;;6.43;1.52;;;;;;;;;;5153143;27;20068;-67
2021/06/13 11:43:54;;;;;;;4.20;1.30;;;;;;;;;;5153205;27;20026;-67
2021/06/13 11:46:35;;;;;;;3.03;1.20;;;;;;;;;;5134579;27;20026;-67
2021/06/13 11:49:02;;;;;;;4.03;1.30;;;;;;;;;;5153000;27;20477;-66
2021/06/13 11:51:28;;;;;;;3.83;0.98;;;;;;;;;;5152736;27;20039;-67
2021/06/13 11:53:59;;;;;;;3.25;1.10;;;;;;;;;;5152887;27;20358;-66
2021/06/13 11:56:34;;;;;;;4.60;1.02;;;;;;;;;;5152860;27;20023;-67
2021/06/13 11:59:01;;;;;;;4.68;1.35;;;;;;;;;;5152907;27;20034;-65
2021/06/13 12:01:27;;;;;;;1.92;0.80;;;;;;;;;;5153122;27;20065;-67
2021/06/13 12:03:55;;;;;;;4.05;1.10;;;;;;;;;;5153372;27;20071;-67
2021/06/13 12:06:21;;;;;;;4.75;1.27;;;;;;;;;;5152837;27;20022;-65
2021/06/13 12:08:49;;;;;;;3.05;1.10;;;;;;;;;;5152941;27;20022;-66
2021/06/13 12:11:30;;;;;;;4.40;1.20;;;;;;;;;;5152826;27;20026;-67
2021/06/13 12:13:57;;;;;;;2.72;1.10;;;;;;;;;;5153127;27;20026;-67
2021/06/13 12:16:24;;;;;;;4.47;1.20;;;;;;;;;;5152935;27;20057;-65
2021/06/13 12:19:00;;;;;;;3.28;0.90;;;;;;;;;;5152983;27;20042;-65
2021/06/13 12:21:28;;;;;;;3.22;1.10;;;;;;;;;;5152782;27;20022;-65
2021/06/13 12:24:01;;;;;;;4.15;1.27;;;;;;;;;;5152984;27;20022;-67
2021/06/13 12:29:25;;;;;;;2.72;1.17;;;;;;;;;;5156862;27;20037;-67
2021/06/13 12:31:51;;;;;;;3.47;1.10;;;;;;;;;;5156581;27;20381;-65
2021/06/13 12:34:21;;;;;;;4.72;1.23;;;;;;;;;;5156791;27;20053;-67
2021/06/13 12:36:55;;;;;;;4.82;1.25;;;;;;;;;;5156515;27;20034;-67
2021/06/13 12:39:25;;;;;;;3.90;1.27;;;;;;;;;;5138127;27;20084;-67
2021/06/13 12:41:51;;;;;;;3.17;1.00;;;;;;;;;;5156476;27;20044;-65
2021/06/13 12:44:17;;;;;;;3.47;1.10;;;;;;;;;;5156600;27;20022;-67
2021/06/13 12:46:43;;;;;;;3.38;1.00;;;;;;;;;;5137859;27;20037;-66
2021/06/13 12:49:09;;;;;;;2.58;1.10;;;;;;;;;;5156545;27;20066;-67
2021/06/13 12:51:36;;;;;;;3.95;1.25;;;;;;;;;;5156335;27;20386;-66
2021/06/13 12:54:13;;;;;;;3.28;1.05;;;;;;;;;;5156424;27;20046;-67
2021/06/13 12:56:41;;;;;;;4.07;1.25;;;;;;;;;;5156417;27;20045;-67
2021/06/13 12:59:07;;;;;;;5.03;1.17;;;;;;;;;;5156323;27;20019;-66
2021/06/13 13:01:33;;;;;;;3.45;1.35;;;;;;;;;;5156333;27;20097;-67
2021/06/13 13:04:01;;;;;;;4.38;1.00;;;;;;;;;;5137414;27;20027;-68
2021/06/13 13:06:27;;;;;;;2.38;0.95;;;;;;;;;;5156048;27;20070;-66
2021/06/13 13:08:53;;;;;;;3.33;1.05;;;;;;;;;;5137435;27;20113;-65
2021/06/13 13:11:29;;;;;;;3.88;1.27;;;;;;;;;;5155670;27;20042;-67
2021/06/13 13:13:57;;;;;;;2.60;0.85;;;;;;;;;;5155905;27;20094;-67
2021/06/13 13:16:24;;;;;;;2.15;0.95;;;;;;;;;;5156022;27;20022;-66
2021/06/13 13:18:51;;;;;;;5.85;1.40;;;;;;;;;;5156073;27;20040;-67
2021/06/13 13:21:29;;;;;;;4.40;1.00;;;;;;;;;;5155685;27;20027;-68
2021/06/13 13:23:55;;;;;;;5.40;0.98;;;;;;;;;;5137185;27;20456;-65
2021/06/13 13:26:22;;;;;;;4.65;1.45;;;;;;;;;;5155754;27;20018;-65
2021/06/13 13:28:52;;;;;;;3.38;0.90;;;;;;;;;;5137152;27;20052;-67
2021/06/13 13:31:20;;;;;;;4.78;1.08;;;;;;;;;;5155528;27;20027;-67
2021/06/13 13:33:52;;;;;;;3.30;0.80;;;;;;;;;;5155573;27;20015;-68
2021/06/13 13:36:29;;;;;;;4.40;1.00;;;;;;;;;;5155589;27;20018;-67
2021/06/13 13:38:56;;;;;;;2.85;0.90;;;;;;;;;;5154830;27;20369;-68
2021/06/13 13:41:23;;;;;;;11.32;1.10;;;;;;;;;;5155125;27;20023;-64
2021/06/13 13:43:59;;;;;;;4.82;0.95;;;;;;;;;;5155318;27;20026;-67
2021/06/13 13:46:30;;;;;;;4.70;1.35;;;;;;;;;;5155207;27;20033;-65
2021/06/13 13:48:57;;;;;;;3.30;1.00;;;;;;;;;;5136608;27;20042;-67
2021/06/13 13:51:23;;;;;;;4.78;1.27;;;;;;;;;;5136366;27;20031;-67
2021/06/13 13:53:52;;;;;;;3.42;1.02;;;;;;;;;;5155225;27;20027;-66
2021/06/13 13:56:22;;;;;;;5.55;1.20;;;;;;;;;;5155111;27;20018;-67
2021/06/13 13:58:49;;;;;;;3.03;0.90;;;;;;;;;;5155563;27;20102;-69
2021/06/13 14:01:15;;;;;;;2.58;0.80;;;;;;;;;;5154981;27;20026;-67
2021/06/13 14:03:41;;;;;;;3.00;0.80;;;;;;;;;;5155180;27;20027;-67
2021/06/13 14:06:07;;;;;;;2.60;0.90;;;;;;;;;;5154893;27;20473;-64
2021/06/13 14:08:40;;;;;;;4.63;1.00;;;;;;;;;;5154964;27;20023;-67
2021/06/13 14:11:06;;;;;;;3.35;0.93;;;;;;;;;;5154732;27;20027;-67
2021/06/13 14:13:32;;;;;;;4.38;1.35;;;;;;;;;;5154675;27;20065;-65
2021/06/13 14:15:58;;;;;;;3.45;0.93;;;;;;;;;;5154814;27;20054;-65
2021/06/13 14:18:24;;;;;;;4.80;1.00;;;;;;;;;;5154540;27;20015;-67
2021/06/13 14:20:50;;;;;;;4.82;1.10;;;;;;;;;;5154560;27;20101;-65
2021/06/13 14:23:16;;;;;;;2.90;1.00;;;;;;;;;;5154687;27;20015;-66
2021/06/13 14:25:43;;;;;;;2.67;0.90;;;;;;;;;;5136328;27;20030;-67
2021/06/13 14:28:09;;;;;;;2.88;0.93;;;;;;;;;;5135937;27;20027;-67
2021/06/13 14:30:36;;;;;;;2.95;0.90;;;;;;;;;;5154192;27;20019;-67
2021/06/13 14:33:02;;;;;;;2.97;0.80;;;;;;;;;;5154105;27;20018;-67
2021/06/13 14:35:28;;;;;;;2.70;1.00;;;;;;;;;;5154373;27;20054;-67
2021/06/13 14:37:54;;;;;;;3.42;1.00;;;;;;;;;;5154510;27;20071;-65
2021/06/13 14:40:20;;;;;;;3.67;1.25;;;;;;;;;;5154415;27;20025;-66
2021/06/13 14:42:47;;;;;;;4.28;0.90;;;;;;;;;;5154397;27;20046;-67
2021/06/13 14:45:14;;;;;;;4.22;1.13;;;;;;;;;;5154217;27;20035;-67
2021/06/13 14:47:41;;;;;;;3.25;1.00;;;;;;;;;;5154134;27;20027;-67
2021/06/13 14:50:08;;;;;;;5.50;1.20;;;;;;;;;;5153010;27;20019;-65
2021/06/13 14:52:34;;;;;;;2.58;1.10;;;;;;;;;;5154138;27;20034;-67
2021/06/13 14:55:00;;;;;;;3.80;1.13;;;;;;;;;;5154036;27;20374;-67